sensor_id;sensor_type;location;lat;lon;timestamp;P1;durP1;ratioP1;P2;durP2;ratioP2
62947;SDS011;51940;52.126;-0.994;2022-11-20T00:01:08;15.70;;;8.50;;
62947;SDS011;51940;52.126;-0.994;2022-11-20T00:03:35;13.10;;;8.30;;
62947;SDS011;51940;52.126;-0.994;2022-11-20T00:06:04;14.80;;;8.40;;
62947;SDS011;51940;52.126;-0.994;2022-11-20T00:08:32;27.20;;;15.20;;
62947;SDS011;51940;52.126;-0.994;2022-11-20T00:11:02;43.50;;;23.50;;
62947;SDS011;51940;52.126;-0.994;2022-11-20T00:13:29;32.80;;;18.20;;
62947;SDS011;51940;52.126;-0.994;2022-11-20T00:15:57;36.20;;;19.30;;
62947;SDS011;51940;52.126;-0.994;2022-11-20T00:18:24;43.50;;;21.70;;
62947;SDS011;51940;52.126;-0.994;2022-11-20T00:20:50;35.50;;;19.10;;
62947;SDS011;51940;52.126;-0.994;2022-11-20T00:23:16;30.50;;;17.10;;
62947;SDS011;51940;52.126;-0.994;2022-11-20T00:25:41;23.00;;;13.80;;
62947;SDS011;51940;52.126;-0.994;2022-11-20T00:28:07;22.30;;;12.10;;
62947;SDS011;51940;52.126;-0.994;2022-11-20T00:30:32;21.20;;;11.90;;
62947;SDS011;51940;52.126;-0.994;2022-11-20T00:32:57;23.20;;;10.80;;
62947;SDS011;51940;52.126;-0.994;2022-11-20T00:35:23;17.60;;;10.10;;
62947;SDS011;51940;52.126;-0.994;2022-11-20T00:37:48;21.60;;;10.10;;
62947;SDS011;51940;52.126;-0.994;2022-11-20T00:40:13;19.40;;;10.00;;
62947;SDS011;51940;52.126;-0.994;2022-11-20T00:42:39;15.60;;;9.30;;
62947;SDS011;51940;52.126;-0.994;2022-11-20T00:45:05;14.50;;;9.30;;
62947;SDS011;51940;52.126;-0.994;2022-11-20T00:47:32;15.60;;;9.50;;
62947;SDS011;51940;52.126;-0.994;2022-11-20T00:49:58;14.70;;;9.50;;
62947;SDS011;51940;52.126;-0.994;2022-11-20T00:52:23;16.00;;;9.20;;
62947;SDS011;51940;52.126;-0.994;2022-11-20T00:54:49;16.10;;;9.30;;
62947;SDS011;51940;52.126;-0.994;2022-11-20T00:57:14;15.70;;;8.80;;
62947;SDS011;51940;52.126;-0.994;2022-11-20T00:59:39;15.10;;;9.90;;
62947;SDS011;51940;52.126;-0.994;2022-11-20T01:02:05;17.20;;;9.70;;
62947;SDS011;51940;52.126;-0.994;2022-11-20T01:04:30;14.10;;;9.20;;
62947;SDS011;51940;52.126;-0.994;2022-11-20T01:06:56;15.10;;;9.10;;
62947;SDS011;51940;52.126;-0.994;2022-11-20T01:09:21;18.00;;;9.50;;
62947;SDS011;51940;52.126;-0.994;2022-11-20T01:11:46;14.10;;;9.50;;
62947;SDS011;51940;52.126;-0.994;2022-11-20T01:14:13;16.00;;;9.60;;
62947;SDS011;51940;52.126;-0.994;2022-11-20T01:16:41;16.80;;;8.90;;
62947;SDS011;51940;52.126;-0.994;2022-11-20T01:19:10;15.40;;;9.00;;
62947;SDS011;51940;52.126;-0.994;2022-11-20T01:21:39;15.30;;;8.70;;
62947;SDS011;51940;52.126;-0.994;2022-11-20T01:24:06;16.60;;;8.60;;
62947;SDS011;51940;52.126;-0.994;2022-11-20T01:26:34;15.60;;;8.20;;
62947;SDS011;51940;52.126;-0.994;2022-11-20T01:29:01;12.10;;;7.30;;
62947;SDS011;51940;52.126;-0.994;2022-11-20T01:33:59;7.00;;;3.90;;
62947;SDS011;51940;52.126;-0.994;2022-11-20T01:36:27;9.50;;;4.00;;
62947;SDS011;51940;52.126;-0.994;2022-11-20T01:38:55;5.80;;;3.60;;
62947;SDS011;51940;52.126;-0.994;2022-11-20T01:41:22;7.90;;;3.90;;
62947;SDS011;51940;52.126;-0.994;2022-11-20T01:44:09;7.80;;;3.50;;
62947;SDS011;51940;52.126;-0.994;2022-11-20T01:46:38;9.00;;;4.50;;
62947;SDS011;51940;52.126;-0.994;2022-11-20T01:49:20;9.10;;;3.50;;
62947;SDS011;51940;52.126;-0.994;2022-11-20T01:51:55;8.00;;;3.60;;
62947;SDS011;51940;52.126;-0.994;2022-11-20T01:54:38;9.10;;;4.20;;
62947;SDS011;51940;52.126;-0.994;2022-11-20T01:57:09;11.40;;;4.30;;
62947;SDS011;51940;52.126;-0.994;2022-11-20T01:59:38;8.10;;;4.70;;
62947;SDS011;51940;52.126;-0.994;2022-11-20T02:02:08;10.60;;;4.30;;
62947;SDS011;51940;52.126;-0.994;2022-11-20T02:04:34;10.20;;;4.30;;
62947;SDS011;51940;52.126;-0.994;2022-11-20T02:07:00;9.50;;;4.20;;
62947;SDS011;51940;52.126;-0.994;2022-11-20T02:09:29;6.40;;;4.30;;
62947;SDS011;51940;52.126;-0.994;2022-11-20T02:11:55;8.10;;;4.20;;
62947;SDS011;51940;52.126;-0.994;2022-11-20T02:14:22;9.80;;;4.50;;
62947;SDS011;51940;52.126;-0.994;2022-11-20T02:16:48;7.80;;;4.10;;
62947;SDS011;51940;52.126;-0.994;2022-11-20T02:19:22;6.20;;;4.80;;
62947;SDS011;51940;52.126;-0.994;2022-11-20T02:24:46;7.30;;;5.10;;
62947;SDS011;51940;52.126;-0.994;2022-11-20T02:27:14;7.20;;;4.60;;
62947;SDS011;51940;52.126;-0.994;2022-11-20T02:29:42;10.00;;;5.00;;
62947;SDS011;51940;52.126;-0.994;2022-11-20T02:32:20;8.20;;;4.60;;
62947;SDS011;51940;52.126;-0.994;2022-11-20T02:34:49;11.60;;;5.80;;
62947;SDS011;51940;52.126;-0.994;2022-11-20T02:37:15;10.50;;;6.10;;
62947;SDS011;51940;52.126;-0.994;2022-11-20T02:39:40;8.30;;;4.60;;
62947;SDS011;51940;52.126;-0.994;2022-11-20T02:42:07;10.30;;;5.00;;
62947;SDS011;51940;52.126;-0.994;2022-11-20T02:44:32;8.00;;;4.80;;
62947;SDS011;51940;52.126;-0.994;2022-11-20T02:46:58;9.90;;;5.20;;
62947;SDS011;51940;52.126;-0.994;2022-11-20T02:49:24;8.90;;;4.60;;
62947;SDS011;51940;52.126;-0.994;2022-11-20T02:51:50;8.50;;;4.40;;
62947;SDS011;51940;52.126;-0.994;2022-11-20T02:54:15;7.80;;;4.30;;
62947;SDS011;51940;52.126;-0.994;2022-11-20T02:56:41;9.90;;;4.40;;
62947;SDS011;51940;52.126;-0.994;2022-11-20T02:59:06;7.80;;;4.30;;
62947;SDS011;51940;52.126;-0.994;2022-11-20T03:01:32;8.70;;;4.40;;
62947;SDS011;51940;52.126;-0.994;2022-11-20T03:03:57;6.60;;;4.20;;
62947;SDS011;51940;52.126;-0.994;2022-11-20T03:06:23;8.30;;;4.10;;
62947;SDS011;51940;52.126;-0.994;2022-11-20T03:08:48;9.50;;;4.30;;
62947;SDS011;51940;52.126;-0.994;2022-11-20T03:11:13;6.30;;;4.20;;
62947;SDS011;51940;52.126;-0.994;2022-11-20T03:13:39;6.80;;;3.90;;
62947;SDS011;51940;52.126;-0.994;2022-11-20T03:16:06;7.20;;;3.80;;
62947;SDS011;51940;52.126;-0.994;2022-11-20T03:18:33;7.70;;;4.30;;
62947;SDS011;51940;52.126;-0.994;2022-11-20T03:20:58;6.70;;;3.70;;
62947;SDS011;51940;52.126;-0.994;2022-11-20T03:23:24;13.80;;;4.30;;
62947;SDS011;51940;52.126;-0.994;2022-11-20T03:25:50;12.40;;;4.30;;
62947;SDS011;51940;52.126;-0.994;2022-11-20T03:28:15;6.90;;;4.30;;
62947;SDS011;51940;52.126;-0.994;2022-11-20T03:30:41;7.60;;;4.50;;
62947;SDS011;51940;52.126;-0.994;2022-11-20T03:33:06;8.10;;;4.60;;
62947;SDS011;51940;52.126;-0.994;2022-11-20T03:35:32;7.60;;;4.20;;
62947;SDS011;51940;52.126;-0.994;2022-11-20T03:37:57;12.10;;;4.60;;
62947;SDS011;51940;52.126;-0.994;2022-11-20T03:40:23;7.90;;;4.80;;
62947;SDS011;51940;52.126;-0.994;2022-11-20T03:42:48;8.90;;;5.10;;
62947;SDS011;51940;52.126;-0.994;2022-11-20T03:45:17;8.40;;;4.90;;
62947;SDS011;51940;52.126;-0.994;2022-11-20T03:47:43;8.70;;;4.80;;
62947;SDS011;51940;52.126;-0.994;2022-11-20T03:50:10;7.30;;;5.20;;
62947;SDS011;51940;52.126;-0.994;2022-11-20T03:52:38;10.20;;;5.60;;
62947;SDS011;51940;52.126;-0.994;2022-11-20T03:55:04;10.50;;;5.00;;
62947;SDS011;51940;52.126;-0.994;2022-11-20T03:57:30;8.50;;;5.20;;
62947;SDS011;51940;52.126;-0.994;2022-11-20T03:59:56;10.40;;;5.60;;
62947;SDS011;51940;52.126;-0.994;2022-11-20T04:02:21;8.70;;;6.00;;
62947;SDS011;51940;52.126;-0.994;2022-11-20T04:04:47;13.90;;;6.20;;
62947;SDS011;51940;52.126;-0.994;2022-11-20T04:07:12;11.10;;;6.10;;
62947;SDS011;51940;52.126;-0.994;2022-11-20T04:09:37;9.20;;;5.90;;
62947;SDS011;51940;52.126;-0.994;2022-11-20T04:12:03;11.90;;;6.80;;
62947;SDS011;51940;52.126;-0.994;2022-11-20T04:14:28;13.30;;;6.80;;
62947;SDS011;51940;52.126;-0.994;2022-11-20T04:16:54;8.90;;;6.80;;
62947;SDS011;51940;52.126;-0.994;2022-11-20T04:19:19;11.90;;;6.60;;
62947;SDS011;51940;52.126;-0.994;2022-11-20T04:21:45;8.80;;;6.70;;
62947;SDS011;51940;52.126;-0.994;2022-11-20T04:24:10;9.90;;;6.60;;
62947;SDS011;51940;52.126;-0.994;2022-11-20T04:26:36;11.00;;;7.50;;
62947;SDS011;51940;52.126;-0.994;2022-11-20T04:29:02;8.30;;;6.30;;
62947;SDS011;51940;52.126;-0.994;2022-11-20T04:31:30;9.10;;;6.40;;
62947;SDS011;51940;52.126;-0.994;2022-11-20T04:34:01;10.00;;;6.10;;
62947;SDS011;51940;52.126;-0.994;2022-11-20T04:36:28;8.50;;;6.30;;
62947;SDS011;51940;52.126;-0.994;2022-11-20T04:38:58;8.80;;;6.20;;
62947;SDS011;51940;52.126;-0.994;2022-11-20T04:41:27;10.50;;;6.80;;
62947;SDS011;51940;52.126;-0.994;2022-11-20T04:43:56;8.90;;;5.80;;
62947;SDS011;51940;52.126;-0.994;2022-11-20T04:46:36;6.80;;;6.10;;
62947;SDS011;51940;52.126;-0.994;2022-11-20T04:49:04;14.00;;;7.10;;
62947;SDS011;51940;52.126;-0.994;2022-11-20T04:51:31;11.80;;;6.80;;
62947;SDS011;51940;52.126;-0.994;2022-11-20T04:53:58;9.00;;;6.40;;
62947;SDS011;51940;52.126;-0.994;2022-11-20T04:56:24;9.30;;;6.20;;
62947;SDS011;51940;52.126;-0.994;2022-11-20T04:58:49;11.80;;;6.10;;
62947;SDS011;51940;52.126;-0.994;2022-11-20T05:01:19;8.60;;;6.20;;
62947;SDS011;51940;52.126;-0.994;2022-11-20T05:03:47;10.10;;;6.80;;
62947;SDS011;51940;52.126;-0.994;2022-11-20T05:06:15;7.50;;;6.30;;
62947;SDS011;51940;52.126;-0.994;2022-11-20T05:08:42;7.80;;;6.30;;
62947;SDS011;51940;52.126;-0.994;2022-11-20T05:11:12;9.40;;;5.90;;
62947;SDS011;51940;52.126;-0.994;2022-11-20T05:13:40;6.20;;;5.40;;
62947;SDS011;51940;52.126;-0.994;2022-11-20T05:16:10;6.10;;;4.70;;
62947;SDS011;51940;52.126;-0.994;2022-11-20T05:18:37;6.70;;;5.20;;
62947;SDS011;51940;52.126;-0.994;2022-11-20T05:21:04;6.00;;;4.90;;
62947;SDS011;51940;52.126;-0.994;2022-11-20T05:23:31;8.90;;;5.70;;
62947;SDS011;51940;52.126;-0.994;2022-11-20T05:25:57;5.30;;;4.50;;
62947;SDS011;51940;52.126;-0.994;2022-11-20T05:28:24;6.10;;;4.80;;
62947;SDS011;51940;52.126;-0.994;2022-11-20T05:30:50;5.80;;;5.00;;
62947;SDS011;51940;52.126;-0.994;2022-11-20T05:33:16;6.30;;;5.00;;
62947;SDS011;51940;52.126;-0.994;2022-11-20T05:35:42;7.20;;;5.20;;
62947;SDS011;51940;52.126;-0.994;2022-11-20T05:38:08;6.60;;;5.00;;
62947;SDS011;51940;52.126;-0.994;2022-11-20T05:40:33;6.10;;;5.10;;
62947;SDS011;51940;52.126;-0.994;2022-11-20T05:42:59;7.60;;;5.70;;
62947;SDS011;51940;52.126;-0.994;2022-11-20T05:45:25;6.80;;;5.20;;
62947;SDS011;51940;52.126;-0.994;2022-11-20T05:47:50;8.60;;;5.50;;
62947;SDS011;51940;52.126;-0.994;2022-11-20T05:50:16;5.50;;;4.40;;
62947;SDS011;51940;52.126;-0.994;2022-11-20T05:52:41;4.70;;;4.10;;
62947;SDS011;51940;52.126;-0.994;2022-11-20T05:55:07;5.30;;;4.60;;
62947;SDS011;51940;52.126;-0.994;2022-11-20T05:57:32;7.30;;;5.30;;
62947;SDS011;51940;52.126;-0.994;2022-11-20T05:59:58;5.40;;;4.60;;
62947;SDS011;51940;52.126;-0.994;2022-11-20T06:02:23;4.50;;;4.10;;
62947;SDS011;51940;52.126;-0.994;2022-11-20T06:04:49;5.10;;;4.20;;
62947;SDS011;51940;52.126;-0.994;2022-11-20T06:07:14;5.50;;;5.00;;
62947;SDS011;51940;52.126;-0.994;2022-11-20T06:09:40;5.20;;;4.70;;
62947;SDS011;51940;52.126;-0.994;2022-11-20T06:12:05;5.40;;;4.90;;
62947;SDS011;51940;52.126;-0.994;2022-11-20T06:14:32;5.20;;;4.70;;
62947;SDS011;51940;52.126;-0.994;2022-11-20T06:16:57;6.00;;;5.10;;
62947;SDS011;51940;52.126;-0.994;2022-11-20T06:19:23;6.20;;;5.00;;
62947;SDS011;51940;52.126;-0.994;2022-11-20T06:21:48;7.00;;;5.50;;
62947;SDS011;51940;52.126;-0.994;2022-11-20T06:24:17;7.00;;;5.80;;
62947;SDS011;51940;52.126;-0.994;2022-11-20T06:26:42;7.50;;;5.70;;
62947;SDS011;51940;52.126;-0.994;2022-11-20T06:29:08;6.80;;;6.00;;
62947;SDS011;51940;52.126;-0.994;2022-11-20T06:31:34;5.80;;;5.20;;
62947;SDS011;51940;52.126;-0.994;2022-11-20T06:34:03;7.20;;;5.70;;
62947;SDS011;51940;52.126;-0.994;2022-11-20T06:36:31;10.20;;;6.20;;
62947;SDS011;51940;52.126;-0.994;2022-11-20T06:38:56;7.90;;;6.20;;
62947;SDS011;51940;52.126;-0.994;2022-11-20T06:41:21;7.80;;;6.40;;
62947;SDS011;51940;52.126;-0.994;2022-11-20T06:43:47;9.40;;;6.70;;
62947;SDS011;51940;52.126;-0.994;2022-11-20T06:46:13;9.30;;;6.60;;
62947;SDS011;51940;52.126;-0.994;2022-11-20T06:48:44;7.60;;;5.90;;
62947;SDS011;51940;52.126;-0.994;2022-11-20T06:51:12;6.80;;;5.80;;
62947;SDS011;51940;52.126;-0.994;2022-11-20T06:53:37;9.50;;;6.30;;
62947;SDS011;51940;52.126;-0.994;2022-11-20T06:56:03;7.60;;;6.10;;
62947;SDS011;51940;52.126;-0.994;2022-11-20T06:58:30;7.80;;;5.80;;
62947;SDS011;51940;52.126;-0.994;2022-11-20T07:01:02;8.60;;;6.00;;
62947;SDS011;51940;52.126;-0.994;2022-11-20T07:03:48;8.70;;;6.20;;
62947;SDS011;51940;52.126;-0.994;2022-11-20T07:06:14;7.30;;;5.40;;
62947;SDS011;51940;52.126;-0.994;2022-11-20T07:08:40;7.60;;;4.70;;
62947;SDS011;51940;52.126;-0.994;2022-11-20T07:11:06;8.40;;;5.40;;
62947;SDS011;51940;52.126;-0.994;2022-11-20T07:13:33;11.00;;;4.80;;
62947;SDS011;51940;52.126;-0.994;2022-11-20T07:16:00;6.60;;;5.20;;
62947;SDS011;51940;52.126;-0.994;2022-11-20T07:18:27;8.00;;;5.10;;
62947;SDS011;51940;52.126;-0.994;2022-11-20T07:20:52;7.80;;;5.20;;
62947;SDS011;51940;52.126;-0.994;2022-11-20T07:23:18;8.70;;;4.90;;
62947;SDS011;51940;52.126;-0.994;2022-11-20T07:25:43;7.70;;;5.10;;
62947;SDS011;51940;52.126;-0.994;2022-11-20T07:28:09;6.30;;;4.60;;
62947;SDS011;51940;52.126;-0.994;2022-11-20T07:30:35;5.70;;;4.60;;
62947;SDS011;51940;52.126;-0.994;2022-11-20T07:33:01;8.10;;;4.70;;
62947;SDS011;51940;52.126;-0.994;2022-11-20T07:35:26;5.80;;;3.90;;
62947;SDS011;51940;52.126;-0.994;2022-11-20T07:37:51;4.60;;;3.90;;
62947;SDS011;51940;52.126;-0.994;2022-11-20T07:40:17;7.00;;;4.60;;
62947;SDS011;51940;52.126;-0.994;2022-11-20T07:42:50;6.50;;;4.00;;
62947;SDS011;51940;52.126;-0.994;2022-11-20T07:45:17;8.10;;;4.40;;
62947;SDS011;51940;52.126;-0.994;2022-11-20T07:47:44;5.20;;;4.20;;
62947;SDS011;51940;52.126;-0.994;2022-11-20T07:50:10;7.10;;;5.00;;
62947;SDS011;51940;52.126;-0.994;2022-11-20T07:52:37;9.60;;;4.40;;
62947;SDS011;51940;52.126;-0.994;2022-11-20T07:55:02;6.90;;;3.90;;
62947;SDS011;51940;52.126;-0.994;2022-11-20T07:57:28;7.30;;;4.10;;
62947;SDS011;51940;52.126;-0.994;2022-11-20T07:59:53;8.60;;;3.50;;
62947;SDS011;51940;52.126;-0.994;2022-11-20T08:02:19;5.20;;;3.50;;
62947;SDS011;51940;52.126;-0.994;2022-11-20T08:04:44;7.00;;;4.00;;
62947;SDS011;51940;52.126;-0.994;2022-11-20T08:07:09;7.70;;;3.50;;
62947;SDS011;51940;52.126;-0.994;2022-11-20T08:09:35;5.50;;;3.50;;
62947;SDS011;51940;52.126;-0.994;2022-11-20T08:12:00;9.70;;;3.70;;
62947;SDS011;51940;52.126;-0.994;2022-11-20T08:14:44;6.00;;;3.30;;
62947;SDS011;51940;52.126;-0.994;2022-11-20T08:17:10;5.30;;;3.20;;
62947;SDS011;51940;52.126;-0.994;2022-11-20T08:19:35;4.90;;;2.90;;
62947;SDS011;51940;52.126;-0.994;2022-11-20T08:22:00;5.10;;;3.20;;
62947;SDS011;51940;52.126;-0.994;2022-11-20T08:24:26;6.00;;;3.10;;
62947;SDS011;51940;52.126;-0.994;2022-11-20T08:26:51;5.90;;;3.00;;
62947;SDS011;51940;52.126;-0.994;2022-11-20T08:29:17;8.90;;;2.90;;
62947;SDS011;51940;52.126;-0.994;2022-11-20T08:31:43;5.70;;;2.70;;
62947;SDS011;51940;52.126;-0.994;2022-11-20T08:34:08;6.10;;;2.60;;
62947;SDS011;51940;52.126;-0.994;2022-11-20T08:36:34;7.40;;;2.70;;
62947;SDS011;51940;52.126;-0.994;2022-11-20T08:39:00;8.90;;;2.80;;
62947;SDS011;51940;52.126;-0.994;2022-11-20T08:41:25;5.30;;;2.80;;
62947;SDS011;51940;52.126;-0.994;2022-11-20T08:43:57;5.60;;;3.20;;
62947;SDS011;51940;52.126;-0.994;2022-11-20T08:46:28;10.30;;;2.50;;
62947;SDS011;51940;52.126;-0.994;2022-11-20T08:49:01;12.80;;;2.50;;
62947;SDS011;51940;52.126;-0.994;2022-11-20T08:51:26;8.50;;;2.20;;
62947;SDS011;51940;52.126;-0.994;2022-11-20T08:53:52;9.40;;;2.30;;
62947;SDS011;51940;52.126;-0.994;2022-11-20T08:56:17;5.60;;;2.10;;
62947;SDS011;51940;52.126;-0.994;2022-11-20T08:58:43;10.30;;;2.40;;
62947;SDS011;51940;52.126;-0.994;2022-11-20T09:01:11;14.80;;;2.10;;
62947;SDS011;51940;52.126;-0.994;2022-11-20T09:03:37;8.20;;;2.20;;
62947;SDS011;51940;52.126;-0.994;2022-11-20T09:06:03;13.20;;;2.30;;
62947;SDS011;51940;52.126;-0.994;2022-11-20T09:08:31;12.10;;;2.30;;
62947;SDS011;51940;52.126;-0.994;2022-11-20T09:10:57;8.60;;;2.20;;
62947;SDS011;51940;52.126;-0.994;2022-11-20T09:13:23;8.30;;;1.60;;
62947;SDS011;51940;52.126;-0.994;2022-11-20T09:15:54;11.60;;;2.50;;
62947;SDS011;51940;52.126;-0.994;2022-11-20T09:18:21;9.50;;;2.50;;
62947;SDS011;51940;52.126;-0.994;2022-11-20T09:20:47;10.40;;;2.50;;
62947;SDS011;51940;52.126;-0.994;2022-11-20T09:23:14;11.90;;;2.60;;
62947;SDS011;51940;52.126;-0.994;2022-11-20T09:25:39;11.60;;;2.20;;
62947;SDS011;51940;52.126;-0.994;2022-11-20T09:28:05;10.60;;;2.40;;
62947;SDS011;51940;52.126;-0.994;2022-11-20T09:30:30;7.50;;;2.20;;
62947;SDS011;51940;52.126;-0.994;2022-11-20T09:32:56;12.00;;;2.40;;
62947;SDS011;51940;52.126;-0.994;2022-11-20T09:35:21;17.60;;;2.50;;
62947;SDS011;51940;52.126;-0.994;2022-11-20T09:37:48;12.20;;;2.10;;
62947;SDS011;51940;52.126;-0.994;2022-11-20T09:40:19;13.40;;;2.50;;
62947;SDS011;51940;52.126;-0.994;2022-11-20T09:45:20;13.50;;;2.50;;
62947;SDS011;51940;52.126;-0.994;2022-11-20T09:55:57;9.40;;;2.20;;
62947;SDS011;51940;52.126;-0.994;2022-11-20T09:58:35;12.20;;;2.60;;
62947;SDS011;51940;52.126;-0.994;2022-11-20T10:01:25;13.00;;;2.80;;
62947;SDS011;51940;52.126;-0.994;2022-11-20T10:04:06;11.60;;;2.40;;
62947;SDS011;51940;52.126;-0.994;2022-11-20T10:06:43;15.70;;;3.20;;
62947;SDS011;51940;52.126;-0.994;2022-11-20T10:11:52;14.80;;;3.50;;
62947;SDS011;51940;52.126;-0.994;2022-11-20T10:19:32;17.60;;;2.80;;
62947;SDS011;51940;52.126;-0.994;2022-11-20T10:25:24;11.10;;;3.50;;
62947;SDS011;51940;52.126;-0.994;2022-11-20T10:30:53;24.40;;;3.00;;
62947;SDS011;51940;52.126;-0.994;2022-11-20T10:33:25;13.30;;;2.80;;
62947;SDS011;51940;52.126;-0.994;2022-11-20T10:41:11;10.70;;;2.20;;
62947;SDS011;51940;52.126;-0.994;2022-11-20T10:46:39;19.40;;;3.10;;
62947;SDS011;51940;52.126;-0.994;2022-11-20T10:49:23;15.40;;;2.80;;
62947;SDS011;51940;52.126;-0.994;2022-11-20T11:00:34;14.30;;;2.50;;
62947;SDS011;51940;52.126;-0.994;2022-11-20T11:02:59;11.40;;;2.50;;
62947;SDS011;51940;52.126;-0.994;2022-11-20T11:08:19;15.30;;;2.90;;
62947;SDS011;51940;52.126;-0.994;2022-11-20T11:13:22;19.60;;;3.50;;
62947;SDS011;51940;52.126;-0.994;2022-11-20T11:15:50;17.60;;;3.10;;
62947;SDS011;51940;52.126;-0.994;2022-11-20T11:18:26;18.00;;;3.30;;
62947;SDS011;51940;52.126;-0.994;2022-11-20T11:20:54;12.90;;;2.40;;
62947;SDS011;51940;52.126;-0.994;2022-11-20T11:26:05;12.40;;;2.30;;
62947;SDS011;51940;52.126;-0.994;2022-11-20T11:28:32;14.90;;;2.90;;
62947;SDS011;51940;52.126;-0.994;2022-11-20T11:30:58;13.10;;;2.40;;
62947;SDS011;51940;52.126;-0.994;2022-11-20T11:33:25;22.70;;;3.00;;
62947;SDS011;51940;52.126;-0.994;2022-11-20T11:35:53;13.50;;;2.80;;
62947;SDS011;51940;52.126;-0.994;2022-11-20T11:38:28;16.50;;;2.70;;
62947;SDS011;51940;52.126;-0.994;2022-11-20T11:40:55;12.20;;;2.10;;
62947;SDS011;51940;52.126;-0.994;2022-11-20T11:43:22;11.80;;;2.70;;
62947;SDS011;51940;52.126;-0.994;2022-11-20T11:46:19;12.70;;;2.50;;
62947;SDS011;51940;52.126;-0.994;2022-11-20T11:48:57;12.30;;;2.70;;
62947;SDS011;51940;52.126;-0.994;2022-11-20T11:51:32;11.40;;;2.20;;
62947;SDS011;51940;52.126;-0.994;2022-11-20T11:54:05;9.10;;;2.20;;
62947;SDS011;51940;52.126;-0.994;2022-11-20T11:56:41;14.10;;;2.60;;
62947;SDS011;51940;52.126;-0.994;2022-11-20T11:59:09;11.40;;;2.20;;
62947;SDS011;51940;52.126;-0.994;2022-11-20T12:01:57;16.70;;;2.10;;
62947;SDS011;51940;52.126;-0.994;2022-11-20T12:07:16;7.90;;;2.60;;
62947;SDS011;51940;52.126;-0.994;2022-11-20T12:09:52;16.10;;;3.30;;
62947;SDS011;51940;52.126;-0.994;2022-11-20T12:12:25;13.90;;;2.40;;
62947;SDS011;51940;52.126;-0.994;2022-11-20T12:14:55;9.10;;;2.00;;
62947;SDS011;51940;52.126;-0.994;2022-11-20T12:17:22;6.60;;;2.00;;
62947;SDS011;51940;52.126;-0.994;2022-11-20T12:19:47;9.10;;;2.70;;
62947;SDS011;51940;52.126;-0.994;2022-11-20T12:25:11;12.00;;;2.70;;
62947;SDS011;51940;52.126;-0.994;2022-11-20T12:30:17;12.20;;;2.70;;
62947;SDS011;51940;52.126;-0.994;2022-11-20T12:44:08;9.60;;;1.90;;
62947;SDS011;51940;52.126;-0.994;2022-11-20T12:50:02;15.60;;;2.50;;
62947;SDS011;51940;52.126;-0.994;2022-11-20T12:55:36;9.80;;;2.10;;
62947;SDS011;51940;52.126;-0.994;2022-11-20T12:58:15;10.30;;;1.70;;
62947;SDS011;51940;52.126;-0.994;2022-11-20T13:00:55;11.00;;;2.30;;
62947;SDS011;51940;52.126;-0.994;2022-11-20T13:03:39;9.10;;;2.20;;
62947;SDS011;51940;52.126;-0.994;2022-11-20T13:06:17;12.70;;;2.30;;
62947;SDS011;51940;52.126;-0.994;2022-11-20T13:08:54;13.90;;;2.00;;
62947;SDS011;51940;52.126;-0.994;2022-11-20T13:18:52;10.50;;;2.20;;
62947;SDS011;51940;52.126;-0.994;2022-11-20T13:21:22;7.20;;;2.00;;
62947;SDS011;51940;52.126;-0.994;2022-11-20T13:24:04;6.70;;;2.20;;
62947;SDS011;51940;52.126;-0.994;2022-11-20T13:26:33;14.40;;;2.30;;
62947;SDS011;51940;52.126;-0.994;2022-11-20T13:29:17;9.00;;;2.10;;
62947;SDS011;51940;52.126;-0.994;2022-11-20T13:31:45;8.00;;;2.20;;
62947;SDS011;51940;52.126;-0.994;2022-11-20T13:34:13;7.10;;;2.50;;
62947;SDS011;51940;52.126;-0.994;2022-11-20T13:36:52;11.10;;;1.80;;
62947;SDS011;51940;52.126;-0.994;2022-11-20T13:42:03;9.80;;;2.00;;
62947;SDS011;51940;52.126;-0.994;2022-11-20T13:44:53;12.60;;;2.50;;
62947;SDS011;51940;52.126;-0.994;2022-11-20T13:47:21;13.10;;;3.00;;
62947;SDS011;51940;52.126;-0.994;2022-11-20T13:49:49;14.50;;;2.50;;
62947;SDS011;51940;52.126;-0.994;2022-11-20T13:53:06;13.40;;;3.10;;
62947;SDS011;51940;52.126;-0.994;2022-11-20T14:01:08;11.50;;;2.80;;
62947;SDS011;51940;52.126;-0.994;2022-11-20T14:03:36;19.40;;;8.40;;
62947;SDS011;51940;52.126;-0.994;2022-11-20T14:06:04;18.50;;;8.20;;
62947;SDS011;51940;52.126;-0.994;2022-11-20T14:08:42;19.40;;;7.10;;
62947;SDS011;51940;52.126;-0.994;2022-11-20T14:13:39;23.50;;;10.60;;
62947;SDS011;51940;52.126;-0.994;2022-11-20T14:16:05;12.00;;;7.10;;
62947;SDS011;51940;52.126;-0.994;2022-11-20T14:18:30;18.40;;;7.40;;
62947;SDS011;51940;52.126;-0.994;2022-11-20T14:20:55;14.20;;;5.60;;
62947;SDS011;51940;52.126;-0.994;2022-11-20T14:23:28;16.30;;;8.00;;
62947;SDS011;51940;52.126;-0.994;2022-11-20T14:25:54;16.20;;;7.10;;
62947;SDS011;51940;52.126;-0.994;2022-11-20T14:28:29;17.20;;;6.30;;
62947;SDS011;51940;52.126;-0.994;2022-11-20T14:30:56;13.60;;;4.90;;
62947;SDS011;51940;52.126;-0.994;2022-11-20T14:33:23;32.50;;;8.10;;
62947;SDS011;51940;52.126;-0.994;2022-11-20T14:35:52;30.00;;;9.80;;
62947;SDS011;51940;52.126;-0.994;2022-11-20T14:38:27;22.50;;;8.10;;
62947;SDS011;51940;52.126;-0.994;2022-11-20T14:40:53;15.60;;;4.50;;
62947;SDS011;51940;52.126;-0.994;2022-11-20T14:48:31;15.40;;;3.20;;
62947;SDS011;51940;52.126;-0.994;2022-11-20T14:51:02;17.70;;;2.90;;
62947;SDS011;51940;52.126;-0.994;2022-11-20T14:53:27;10.10;;;3.50;;
62947;SDS011;51940;52.126;-0.994;2022-11-20T14:56:00;12.70;;;3.40;;
62947;SDS011;51940;52.126;-0.994;2022-11-20T14:58:30;16.60;;;3.10;;
62947;SDS011;51940;52.126;-0.994;2022-11-20T15:00:59;9.80;;;2.90;;
62947;SDS011;51940;52.126;-0.994;2022-11-20T15:06:06;12.50;;;2.40;;
62947;SDS011;51940;52.126;-0.994;2022-11-20T15:08:33;14.20;;;2.40;;
62947;SDS011;51940;52.126;-0.994;2022-11-20T15:10:59;8.40;;;2.80;;
62947;SDS011;51940;52.126;-0.994;2022-11-20T15:13:32;9.40;;;3.00;;
62947;SDS011;51940;52.126;-0.994;2022-11-20T15:16:01;11.70;;;3.30;;
62947;SDS011;51940;52.126;-0.994;2022-11-20T15:18:33;10.30;;;4.40;;
62947;SDS011;51940;52.126;-0.994;2022-11-20T15:21:05;15.90;;;6.90;;
62947;SDS011;51940;52.126;-0.994;2022-11-20T15:23:35;13.00;;;6.00;;
62947;SDS011;51940;52.126;-0.994;2022-11-20T15:26:01;9.00;;;4.10;;
62947;SDS011;51940;52.126;-0.994;2022-11-20T15:28:30;6.20;;;3.90;;
62947;SDS011;51940;52.126;-0.994;2022-11-20T15:30:58;7.90;;;5.00;;
62947;SDS011;51940;52.126;-0.994;2022-11-20T15:33:25;7.40;;;3.20;;
62947;SDS011;51940;52.126;-0.994;2022-11-20T15:35:50;3.20;;;2.00;;
62947;SDS011;51940;52.126;-0.994;2022-11-20T15:38:16;3.60;;;2.30;;
62947;SDS011;51940;52.126;-0.994;2022-11-20T15:40:41;3.50;;;2.40;;
62947;SDS011;51940;52.126;-0.994;2022-11-20T15:43:07;8.50;;;4.30;;
62947;SDS011;51940;52.126;-0.994;2022-11-20T15:45:40;7.50;;;3.40;;
62947;SDS011;51940;52.126;-0.994;2022-11-20T15:48:08;15.90;;;7.00;;
62947;SDS011;51940;52.126;-0.994;2022-11-20T15:50:38;10.50;;;6.20;;
62947;SDS011;51940;52.126;-0.994;2022-11-20T15:53:09;7.80;;;5.10;;
62947;SDS011;51940;52.126;-0.994;2022-11-20T15:55:35;11.10;;;6.50;;
62947;SDS011;51940;52.126;-0.994;2022-11-20T15:58:00;9.90;;;5.80;;
62947;SDS011;51940;52.126;-0.994;2022-11-20T16:00:26;12.70;;;7.80;;
62947;SDS011;51940;52.126;-0.994;2022-11-20T16:02:51;12.80;;;7.60;;
62947;SDS011;51940;52.126;-0.994;2022-11-20T16:05:17;10.00;;;5.20;;
62947;SDS011;51940;52.126;-0.994;2022-11-20T16:07:42;7.50;;;4.80;;
62947;SDS011;51940;52.126;-0.994;2022-11-20T16:10:08;3.10;;;2.40;;
62947;SDS011;51940;52.126;-0.994;2022-11-20T16:12:33;5.90;;;3.50;;
62947;SDS011;51940;52.126;-0.994;2022-11-20T16:15:18;5.10;;;3.20;;
62947;SDS011;51940;52.126;-0.994;2022-11-20T16:18:02;5.20;;;2.80;;
62947;SDS011;51940;52.126;-0.994;2022-11-20T16:20:28;5.00;;;2.70;;
62947;SDS011;51940;52.126;-0.994;2022-11-20T16:22:54;4.90;;;2.70;;